sensor_id;sensor_type;location;lat;lon;timestamp;pressure;altitude;pressure_sealevel;temperature
24586;BMP280;12743;52.262;6.172;2023-06-14T00:00:41;101150.06;;;19.41
24586;BMP280;12743;52.262;6.172;2023-06-14T00:03:10;101143.81;;;18.95
24586;BMP280;12743;52.262;6.172;2023-06-14T00:05:38;101131.44;;;19.58
24586;BMP280;12743;52.262;6.172;2023-06-14T00:08:07;101148.38;;;19.01
24586;BMP280;12743;52.262;6.172;2023-06-14T00:10:35;101141.63;;;19.21
24586;BMP280;12743;52.262;6.172;2023-06-14T00:13:05;101138.03;;;18.82
24586;BMP280;12743;52.262;6.172;2023-06-14T00:15:31;101133.41;;;18.79
24586;BMP280;12743;52.262;6.172;2023-06-14T00:17:58;101146.13;;;19.10
24586;BMP280;12743;52.262;6.172;2023-06-14T00:20:28;101135.81;;;19.05
24586;BMP280;12743;52.262;6.172;2023-06-14T00:22:55;101123.19;;;18.77
24586;BMP280;12743;52.262;6.172;2023-06-14T00:25:23;101141.13;;;18.91
24586;BMP280;12743;52.262;6.172;2023-06-14T00:27:56;101146.47;;;18.95
24586;BMP280;12743;52.262;6.172;2023-06-14T00:30:23;101149.13;;;18.98
24586;BMP280;12743;52.262;6.172;2023-06-14T00:32:50;101143.34;;;18.86
24586;BMP280;12743;52.262;6.172;2023-06-14T00:35:18;101136.25;;;18.46
24586;BMP280;12743;52.262;6.172;2023-06-14T00:37:45;101126.59;;;18.78
24586;BMP280;12743;52.262;6.172;2023-06-14T00:40:11;101154.63;;;19.33
24586;BMP280;12743;52.262;6.172;2023-06-14T00:42:38;101139.22;;;18.34
24586;BMP280;12743;52.262;6.172;2023-06-14T00:45:05;101133.44;;;18.25
24586;BMP280;12743;52.262;6.172;2023-06-14T00:47:32;101142.81;;;18.59
24586;BMP280;12743;52.262;6.172;2023-06-14T00:50:00;101152.28;;;18.53
24586;BMP280;12743;52.262;6.172;2023-06-14T00:52:27;101146.44;;;18.37
24586;BMP280;12743;52.262;6.172;2023-06-14T00:54:54;101136.00;;;18.61
24586;BMP280;12743;52.262;6.172;2023-06-14T00:57:20;101145.19;;;18.20
24586;BMP280;12743;52.262;6.172;2023-06-14T00:59:48;101123.00;;;18.53
24586;BMP280;12743;52.262;6.172;2023-06-14T01:02:15;101146.81;;;18.32
24586;BMP280;12743;52.262;6.172;2023-06-14T01:04:44;101141.97;;;18.44
24586;BMP280;12743;52.262;6.172;2023-06-14T01:12:58;101149.53;;;18.42
24586;BMP280;12743;52.262;6.172;2023-06-14T01:15:30;101143.09;;;18.47
24586;BMP280;12743;52.262;6.172;2023-06-14T01:17:57;101134.38;;;18.03
24586;BMP280;12743;52.262;6.172;2023-06-14T01:20:31;101147.63;;;18.43
24586;BMP280;12743;52.262;6.172;2023-06-14T01:22:59;101150.81;;;18.12
24586;BMP280;12743;52.262;6.172;2023-06-14T01:25:26;101142.19;;;18.25
24586;BMP280;12743;52.262;6.172;2023-06-14T01:30:22;101136.53;;;18.30
24586;BMP280;12743;52.262;6.172;2023-06-14T01:32:53;101130.81;;;17.84
24586;BMP280;12743;52.262;6.172;2023-06-14T01:35:21;101139.91;;;17.83
24586;BMP280;12743;52.262;6.172;2023-06-14T01:37:49;101127.88;;;17.97
24586;BMP280;12743;52.262;6.172;2023-06-14T01:40:16;101146.44;;;18.37
24586;BMP280;12743;52.262;6.172;2023-06-14T01:42:44;101143.94;;;18.07
24586;BMP280;12743;52.262;6.172;2023-06-14T01:45:12;101131.63;;;17.88
24586;BMP280;12743;52.262;6.172;2023-06-14T01:47:39;101137.50;;;18.08
24586;BMP280;12743;52.262;6.172;2023-06-14T01:50:08;101143.19;;;18.10
24586;BMP280;12743;52.262;6.172;2023-06-14T01:52:36;101130.88;;;17.55
24586;BMP280;12743;52.262;6.172;2023-06-14T01:55:06;101136.31;;;18.06
24586;BMP280;12743;52.262;6.172;2023-06-14T01:57:34;101146.59;;;18.07
24586;BMP280;12743;52.262;6.172;2023-06-14T02:00:03;101148.88;;;17.68
24586;BMP280;12743;52.262;6.172;2023-06-14T02:02:38;101145.94;;;17.80
24586;BMP280;12743;52.262;6.172;2023-06-14T02:05:05;101146.94;;;17.65
24586;BMP280;12743;52.262;6.172;2023-06-14T02:07:32;101144.41;;;17.79
24586;BMP280;12743;52.262;6.172;2023-06-14T02:09:59;101144.78;;;17.78
24586;BMP280;12743;52.262;6.172;2023-06-14T02:12:26;101140.81;;;17.61
24586;BMP280;12743;52.262;6.172;2023-06-14T02:14:53;101150.91;;;17.82
24586;BMP280;12743;52.262;6.172;2023-06-14T02:17:22;101148.66;;;17.51
24586;BMP280;12743;52.262;6.172;2023-06-14T02:19:49;101153.38;;;17.31
24586;BMP280;12743;52.262;6.172;2023-06-14T02:22:16;101142.09;;;17.74
24586;BMP280;12743;52.262;6.172;2023-06-14T02:24:43;101123.16;;;17.43
24586;BMP280;12743;52.262;6.172;2023-06-14T02:27:10;101137.91;;;17.11
24586;BMP280;12743;52.262;6.172;2023-06-14T02:29:37;101147.13;;;16.90
24586;BMP280;12743;52.262;6.172;2023-06-14T02:32:05;101141.34;;;17.11
24586;BMP280;12743;52.262;6.172;2023-06-14T02:34:34;101139.34;;;17.34
24586;BMP280;12743;52.262;6.172;2023-06-14T02:37:02;101151.50;;;16.79
24586;BMP280;12743;52.262;6.172;2023-06-14T02:39:31;101142.16;;;16.63
24586;BMP280;12743;52.262;6.172;2023-06-14T02:41:58;101136.66;;;17.01
24586;BMP280;12743;52.262;6.172;2023-06-14T02:44:26;101142.50;;;16.87
24586;BMP280;12743;52.262;6.172;2023-06-14T02:46:58;101138.19;;;17.02
24586;BMP280;12743;52.262;6.172;2023-06-14T02:49:27;101141.09;;;17.23
24586;BMP280;12743;52.262;6.172;2023-06-14T02:51:54;101129.69;;;16.89
24586;BMP280;12743;52.262;6.172;2023-06-14T02:54:20;101113.25;;;17.07
24586;BMP280;12743;52.262;6.172;2023-06-14T02:56:47;101143.16;;;17.07
24586;BMP280;12743;52.262;6.172;2023-06-14T02:59:14;101145.25;;;17.21
24586;BMP280;12743;52.262;6.172;2023-06-14T03:01:41;101154.13;;;16.76
24586;BMP280;12743;52.262;6.172;2023-06-14T03:04:11;101142.00;;;16.78
24586;BMP280;12743;52.262;6.172;2023-06-14T03:06:39;101153.94;;;16.65
24586;BMP280;12743;52.262;6.172;2023-06-14T03:09:07;101143.53;;;16.31
24586;BMP280;12743;52.262;6.172;2023-06-14T03:11:37;101161.97;;;16.69
24586;BMP280;12743;52.262;6.172;2023-06-14T03:14:04;101168.81;;;16.70
24586;BMP280;12743;52.262;6.172;2023-06-14T03:16:35;101160.25;;;16.80
24586;BMP280;12743;52.262;6.172;2023-06-14T03:19:04;101152.38;;;16.87
24586;BMP280;12743;52.262;6.172;2023-06-14T03:21:32;101172.47;;;17.14
24586;BMP280;12743;52.262;6.172;2023-06-14T03:24:01;101167.91;;;16.62
24586;BMP280;12743;52.262;6.172;2023-06-14T03:26:30;101171.38;;;16.40
24586;BMP280;12743;52.262;6.172;2023-06-14T03:28:59;101170.31;;;16.71
24586;BMP280;12743;52.262;6.172;2023-06-14T03:31:28;101182.47;;;16.27
24586;BMP280;12743;52.262;6.172;2023-06-14T03:34:01;101162.06;;;15.89
24586;BMP280;12743;52.262;6.172;2023-06-14T03:36:28;101174.75;;;16.41
24586;BMP280;12743;52.262;6.172;2023-06-14T03:38:54;101181.53;;;16.61
24586;BMP280;12743;52.262;6.172;2023-06-14T03:41:22;101183.38;;;16.15
24586;BMP280;12743;52.262;6.172;2023-06-14T03:43:50;101183.53;;;16.22
24586;BMP280;12743;52.262;6.172;2023-06-14T03:46:16;101182.16;;;16.09
24586;BMP280;12743;52.262;6.172;2023-06-14T03:48:43;101182.84;;;16.06
24586;BMP280;12743;52.262;6.172;2023-06-14T03:51:10;101177.59;;;15.87
24586;BMP280;12743;52.262;6.172;2023-06-14T03:53:37;101179.41;;;16.25
24586;BMP280;12743;52.262;6.172;2023-06-14T03:56:20;101180.13;;;16.02
24586;BMP280;12743;52.262;6.172;2023-06-14T03:58:47;101184.34;;;16.03
24586;BMP280;12743;52.262;6.172;2023-06-14T04:01:14;101184.03;;;15.89
24586;BMP280;12743;52.262;6.172;2023-06-14T04:03:43;101178.75;;;16.08
24586;BMP280;12743;52.262;6.172;2023-06-14T04:06:10;101192.56;;;16.40
24586;BMP280;12743;52.262;6.172;2023-06-14T04:08:37;101189.63;;;16.03
24586;BMP280;12743;52.262;6.172;2023-06-14T04:11:06;101187.25;;;15.98
24586;BMP280;12743;52.262;6.172;2023-06-14T04:13:33;101193.16;;;16.11
24586;BMP280;12743;52.262;6.172;2023-06-14T04:16:02;101192.81;;;16.12
24586;BMP280;12743;52.262;6.172;2023-06-14T04:18:33;101209.63;;;16.20
24586;BMP280;12743;52.262;6.172;2023-06-14T04:20:59;101204.28;;;16.39
24586;BMP280;12743;52.262;6.172;2023-06-14T04:23:28;101196.97;;;15.91
24586;BMP280;12743;52.262;6.172;2023-06-14T04:25:56;101195.41;;;15.90
24586;BMP280;12743;52.262;6.172;2023-06-14T04:28:28;101209.44;;;16.32
24586;BMP280;12743;52.262;6.172;2023-06-14T04:30:57;101197.78;;;16.14
24586;BMP280;12743;52.262;6.172;2023-06-14T04:33:29;101197.72;;;15.91
24586;BMP280;12743;52.262;6.172;2023-06-14T04:35:58;101208.50;;;16.02
24586;BMP280;12743;52.262;6.172;2023-06-14T04:38:27;101204.91;;;15.91
24586;BMP280;12743;52.262;6.172;2023-06-14T04:40:56;101205.72;;;15.76
24586;BMP280;12743;52.262;6.172;2023-06-14T04:43:23;101208.56;;;16.05
24586;BMP280;12743;52.262;6.172;2023-06-14T04:45:53;101203.84;;;15.95
24586;BMP280;12743;52.262;6.172;2023-06-14T04:48:22;101214.94;;;16.01
24586;BMP280;12743;52.262;6.172;2023-06-14T04:50:49;101216.19;;;16.07
24586;BMP280;12743;52.262;6.172;2023-06-14T04:53:20;101215.69;;;16.01
24586;BMP280;12743;52.262;6.172;2023-06-14T04:55:52;101224.41;;;16.02
24586;BMP280;12743;52.262;6.172;2023-06-14T04:58:20;101217.75;;;16.31
24586;BMP280;12743;52.262;6.172;2023-06-14T05:00:47;101230.84;;;16.43
24586;BMP280;12743;52.262;6.172;2023-06-14T05:03:13;101206.22;;;16.42
24586;BMP280;12743;52.262;6.172;2023-06-14T05:05:41;101235.47;;;16.68
24586;BMP280;12743;52.262;6.172;2023-06-14T05:08:07;101243.28;;;16.84
24586;BMP280;12743;52.262;6.172;2023-06-14T05:10:35;101235.34;;;16.84
24586;BMP280;12743;52.262;6.172;2023-06-14T05:13:02;101223.78;;;16.95
24586;BMP280;12743;52.262;6.172;2023-06-14T05:15:29;101220.97;;;16.62
24586;BMP280;12743;52.262;6.172;2023-06-14T05:17:56;101243.75;;;17.12
24586;BMP280;12743;52.262;6.172;2023-06-14T05:20:24;101226.22;;;17.08
24586;BMP280;12743;52.262;6.172;2023-06-14T05:22:54;101250.94;;;17.12
24586;BMP280;12743;52.262;6.172;2023-06-14T05:25:23;101229.97;;;17.29
24586;BMP280;12743;52.262;6.172;2023-06-14T05:27:49;101245.63;;;17.38
24586;BMP280;12743;52.262;6.172;2023-06-14T05:30:16;101250.63;;;17.43
24586;BMP280;12743;52.262;6.172;2023-06-14T05:32:43;101244.63;;;17.75
24586;BMP280;12743;52.262;6.172;2023-06-14T05:35:09;101256.41;;;17.78
24586;BMP280;12743;52.262;6.172;2023-06-14T05:37:37;101250.78;;;17.86
24586;BMP280;12743;52.262;6.172;2023-06-14T05:40:04;101264.97;;;18.31
24586;BMP280;12743;52.262;6.172;2023-06-14T05:42:32;101250.09;;;18.26
24586;BMP280;12743;52.262;6.172;2023-06-14T05:44:59;101262.56;;;18.19
24586;BMP280;12743;52.262;6.172;2023-06-14T05:47:26;101263.25;;;18.56
24586;BMP280;12743;52.262;6.172;2023-06-14T05:49:54;101267.66;;;18.78
24586;BMP280;12743;52.262;6.172;2023-06-14T05:52:21;101280.03;;;18.60
24586;BMP280;12743;52.262;6.172;2023-06-14T05:54:48;101269.16;;;18.79
24586;BMP280;12743;52.262;6.172;2023-06-14T05:57:14;101265.38;;;18.80
24586;BMP280;12743;52.262;6.172;2023-06-14T05:59:41;101294.44;;;18.99
24586;BMP280;12743;52.262;6.172;2023-06-14T06:02:08;101268.75;;;18.73
24586;BMP280;12743;52.262;6.172;2023-06-14T06:04:34;101304.78;;;19.15
24586;BMP280;12743;52.262;6.172;2023-06-14T06:07:02;101302.22;;;19.25
24586;BMP280;12743;52.262;6.172;2023-06-14T06:09:30;101300.34;;;19.33
24586;BMP280;12743;52.262;6.172;2023-06-14T06:11:56;101299.88;;;19.17
24586;BMP280;12743;52.262;6.172;2023-06-14T06:14:23;101309.13;;;19.33
24586;BMP280;12743;52.262;6.172;2023-06-14T06:16:50;101296.94;;;19.36
24586;BMP280;12743;52.262;6.172;2023-06-14T06:19:19;101312.31;;;19.63
24586;BMP280;12743;52.262;6.172;2023-06-14T06:21:45;101302.09;;;19.72
24586;BMP280;12743;52.262;6.172;2023-06-14T06:24:12;101311.28;;;19.93
24586;BMP280;12743;52.262;6.172;2023-06-14T06:26:39;101303.25;;;19.78
24586;BMP280;12743;52.262;6.172;2023-06-14T06:29:06;101323.84;;;19.92
24586;BMP280;12743;52.262;6.172;2023-06-14T06:31:33;101328.50;;;20.30
24586;BMP280;12743;52.262;6.172;2023-06-14T06:34:01;101301.47;;;20.28
24586;BMP280;12743;52.262;6.172;2023-06-14T06:36:27;101322.34;;;19.98
24586;BMP280;12743;52.262;6.172;2023-06-14T06:38:54;101327.78;;;20.44
24586;BMP280;12743;52.262;6.172;2023-06-14T06:41:21;101329.72;;;20.57
24586;BMP280;12743;52.262;6.172;2023-06-14T06:43:47;101341.84;;;20.27
24586;BMP280;12743;52.262;6.172;2023-06-14T06:46:16;101344.97;;;20.53
24586;BMP280;12743;52.262;6.172;2023-06-14T06:48:44;101333.09;;;20.30
24586;BMP280;12743;52.262;6.172;2023-06-14T06:51:11;101336.53;;;20.20
24586;BMP280;12743;52.262;6.172;2023-06-14T06:53:41;101354.16;;;20.88
24586;BMP280;12743;52.262;6.172;2023-06-14T06:56:14;101339.28;;;20.62
24586;BMP280;12743;52.262;6.172;2023-06-14T06:58:40;101352.59;;;20.94
24586;BMP280;12743;52.262;6.172;2023-06-14T07:01:07;101348.81;;;20.95
24586;BMP280;12743;52.262;6.172;2023-06-14T07:03:35;101345.69;;;21.24
24586;BMP280;12743;52.262;6.172;2023-06-14T07:06:02;101346.78;;;21.44
24586;BMP280;12743;52.262;6.172;2023-06-14T07:08:29;101357.47;;;21.51
24586;BMP280;12743;52.262;6.172;2023-06-14T07:10:55;101362.13;;;21.19
24586;BMP280;12743;52.262;6.172;2023-06-14T07:13:22;101360.59;;;21.25
24586;BMP280;12743;52.262;6.172;2023-06-14T07:15:48;101367.41;;;21.44
24586;BMP280;12743;52.262;6.172;2023-06-14T07:18:15;101346.00;;;21.54
24586;BMP280;12743;52.262;6.172;2023-06-14T07:20:42;101361.63;;;21.63
24586;BMP280;12743;52.262;6.172;2023-06-14T07:23:09;101377.59;;;21.80
24586;BMP280;12743;52.262;6.172;2023-06-14T07:25:37;101371.84;;;21.85
24586;BMP280;12743;52.262;6.172;2023-06-14T07:28:03;101375.19;;;22.07
24586;BMP280;12743;52.262;6.172;2023-06-14T07:30:30;101381.59;;;21.27
24586;BMP280;12743;52.262;6.172;2023-06-14T07:32:57;101378.28;;;21.95
24586;BMP280;12743;52.262;6.172;2023-06-14T07:35:24;101349.91;;;22.15
24586;BMP280;12743;52.262;6.172;2023-06-14T07:37:50;101381.88;;;22.40
24586;BMP280;12743;52.262;6.172;2023-06-14T07:40:17;101361.91;;;21.90
24586;BMP280;12743;52.262;6.172;2023-06-14T07:42:44;101387.94;;;21.71
24586;BMP280;12743;52.262;6.172;2023-06-14T07:45:13;101390.47;;;22.07
24586;BMP280;12743;52.262;6.172;2023-06-14T07:47:40;101382.16;;;21.94
24586;BMP280;12743;52.262;6.172;2023-06-14T07:50:07;101387.56;;;21.69
24586;BMP280;12743;52.262;6.172;2023-06-14T07:52:36;101386.00;;;21.86
24586;BMP280;12743;52.262;6.172;2023-06-14T07:55:03;101376.75;;;22.05
24586;BMP280;12743;52.262;6.172;2023-06-14T07:57:30;101377.41;;;22.19
24586;BMP280;12743;52.262;6.172;2023-06-14T07:59:56;101384.84;;;22.49
24586;BMP280;12743;52.262;6.172;2023-06-14T08:02:23;101387.00;;;22.68
24586;BMP280;12743;52.262;6.172;2023-06-14T08:04:50;101383.00;;;22.42
24586;BMP280;12743;52.262;6.172;2023-06-14T08:07:17;101376.13;;;22.89
24586;BMP280;12743;52.262;6.172;2023-06-14T08:09:43;101389.97;;;22.33
24586;BMP280;12743;52.262;6.172;2023-06-14T08:12:10;101388.16;;;23.11
24586;BMP280;12743;52.262;6.172;2023-06-14T08:14:37;101390.41;;;22.72
24586;BMP280;12743;52.262;6.172;2023-06-14T08:17:03;101378.84;;;22.85
24586;BMP280;12743;52.262;6.172;2023-06-14T08:19:30;101388.03;;;22.33
24586;BMP280;12743;52.262;6.172;2023-06-14T08:21:57;101386.75;;;22.55
24586;BMP280;12743;52.262;6.172;2023-06-14T08:24:24;101393.53;;;23.11
24586;BMP280;12743;52.262;6.172;2023-06-14T08:26:51;101390.09;;;23.11
24586;BMP280;12743;52.262;6.172;2023-06-14T08:29:18;101389.75;;;23.42
24586;BMP280;12743;52.262;6.172;2023-06-14T08:31:45;101374.81;;;23.41
24586;BMP280;12743;52.262;6.172;2023-06-14T08:34:12;101372.97;;;23.35
24586;BMP280;12743;52.262;6.172;2023-06-14T08:36:38;101384.19;;;22.89
24586;BMP280;12743;52.262;6.172;2023-06-14T08:39:05;101369.38;;;23.15
24586;BMP280;12743;52.262;6.172;2023-06-14T08:41:32;101372.66;;;23.63
24586;BMP280;12743;52.262;6.172;2023-06-14T08:43:59;101379.19;;;22.87
24586;BMP280;12743;52.262;6.172;2023-06-14T08:46:26;101361.50;;;22.97
24586;BMP280;12743;52.262;6.172;2023-06-14T08:48:55;101390.78;;;23.18
24586;BMP280;12743;52.262;6.172;2023-06-14T08:51:25;101383.53;;;23.49
24586;BMP280;12743;52.262;6.172;2023-06-14T08:53:54;101378.91;;;23.53
24586;BMP280;12743;52.262;6.172;2023-06-14T08:56:31;101389.28;;;23.14
24586;BMP280;12743;52.262;6.172;2023-06-14T08:58:58;101373.44;;;23.26
24586;BMP280;12743;52.262;6.172;2023-06-14T09:01:36;101386.50;;;23.88
24586;BMP280;12743;52.262;6.172;2023-06-14T09:04:04;101390.25;;;23.64
24586;BMP280;12743;52.262;6.172;2023-06-14T09:06:32;101387.69;;;23.53
24586;BMP280;12743;52.262;6.172;2023-06-14T09:08:59;101362.31;;;23.28
24586;BMP280;12743;52.262;6.172;2023-06-14T09:11:26;101381.63;;;23.12
24586;BMP280;12743;52.262;6.172;2023-06-14T09:13:53;101357.44;;;23.53
24586;BMP280;12743;52.262;6.172;2023-06-14T09:16:19;101380.81;;;23.86
24586;BMP280;12743;52.262;6.172;2023-06-14T09:18:47;101382.97;;;23.64
24586;BMP280;12743;52.262;6.172;2023-06-14T09:21:16;101372.72;;;23.26
24586;BMP280;12743;52.262;6.172;2023-06-14T09:23:44;101389.19;;;23.58
24586;BMP280;12743;52.262;6.172;2023-06-14T09:26:18;101387.41;;;23.48
24586;BMP280;12743;52.262;6.172;2023-06-14T09:28:50;101359.84;;;23.74
24586;BMP280;12743;52.262;6.172;2023-06-14T09:31:18;101379.59;;;24.40
24586;BMP280;12743;52.262;6.172;2023-06-14T09:33:46;101366.34;;;24.03
24586;BMP280;12743;52.262;6.172;2023-06-14T09:36:17;101385.78;;;23.84
24586;BMP280;12743;52.262;6.172;2023-06-14T09:39:03;101381.31;;;24.04
24586;BMP280;12743;52.262;6.172;2023-06-14T09:41:39;101381.34;;;23.70
24586;BMP280;12743;52.262;6.172;2023-06-14T09:44:10;101381.34;;;23.70
24586;BMP280;12743;52.262;6.172;2023-06-14T09:46:45;101378.63;;;24.54
24586;BMP280;12743;52.262;6.172;2023-06-14T09:49:12;101384.22;;;24.63
24586;BMP280;12743;52.262;6.172;2023-06-14T09:51:45;101375.00;;;24.64
24586;BMP280;12743;52.262;6.172;2023-06-14T09:54:22;101374.16;;;24.21
24586;BMP280;12743;52.262;6.172;2023-06-14T09:56:51;101390.66;;;23.66
24586;BMP280;12743;52.262;6.172;2023-06-14T09:59:26;101386.91;;;24.13
24586;BMP280;12743;52.262;6.172;2023-06-14T10:01:58;101372.03;;;23.82
24586;BMP280;12743;52.262;6.172;2023-06-14T10:04:27;101388.06;;;23.85
24586;BMP280;12743;52.262;6.172;2023-06-14T10:06:55;101394.31;;;24.78
24586;BMP280;12743;52.262;6.172;2023-06-14T10:09:21;101390.31;;;24.67
24586;BMP280;12743;52.262;6.172;2023-06-14T10:11:48;101387.47;;;25.16
24586;BMP280;12743;52.262;6.172;2023-06-14T10:14:16;101402.53;;;24.22
24586;BMP280;12743;52.262;6.172;2023-06-14T10:17:03;101389.47;;;25.12
24586;BMP280;12743;52.262;6.172;2023-06-14T10:19:56;101384.19;;;24.86
24586;BMP280;12743;52.262;6.172;2023-06-14T10:22:30;101378.91;;;24.59
24586;BMP280;12743;52.262;6.172;2023-06-14T10:24:59;101387.59;;;25.09
24586;BMP280;12743;52.262;6.172;2023-06-14T10:27:26;101370.44;;;25.23
24586;BMP280;12743;52.262;6.172;2023-06-14T10:32:22;101373.56;;;24.98
24586;BMP280;12743;52.262;6.172;2023-06-14T10:34:59;101384.38;;;25.18
24586;BMP280;12743;52.262;6.172;2023-06-14T10:37:26;101377.03;;;24.99
24586;BMP280;12743;52.262;6.172;2023-06-14T10:39:52;101386.41;;;25.50
24586;BMP280;12743;52.262;6.172;2023-06-14T10:42:28;101383.88;;;24.61
24586;BMP280;12743;52.262;6.172;2023-06-14T10:44:56;101371.81;;;25.11
24586;BMP280;12743;52.262;6.172;2023-06-14T10:47:30;101374.09;;;25.32
24586;BMP280;12743;52.262;6.172;2023-06-14T10:50:07;101387.06;;;25.18
24586;BMP280;12743;52.262;6.172;2023-06-14T10:52:38;101380.09;;;25.01
24586;BMP280;12743;52.262;6.172;2023-06-14T10:57:33;101353.75;;;25.12
24586;BMP280;12743;52.262;6.172;2023-06-14T11:00:14;101390.84;;;25.20
24586;BMP280;12743;52.262;6.172;2023-06-14T11:05:52;101382.78;;;25.92
24586;BMP280;12743;52.262;6.172;2023-06-14T11:11:13;101381.06;;;25.10
24586;BMP280;12743;52.262;6.172;2023-06-14T11:13:50;101383.19;;;25.38
24586;BMP280;12743;52.262;6.172;2023-06-14T11:16:19;101384.19;;;25.64
24586;BMP280;12743;52.262;6.172;2023-06-14T11:18:46;101382.84;;;25.17
24586;BMP280;12743;52.262;6.172;2023-06-14T11:21:19;101379.72;;;24.99
24586;BMP280;12743;52.262;6.172;2023-06-14T11:23:52;101390.72;;;25.47
24586;BMP280;12743;52.262;6.172;2023-06-14T11:26:30;101387.94;;;25.86
24586;BMP280;12743;52.262;6.172;2023-06-14T11:28:58;101379.50;;;26.64
24586;BMP280;12743;52.262;6.172;2023-06-14T11:31:26;101377.25;;;25.83
24586;BMP280;12743;52.262;6.172;2023-06-14T11:33:55;101395.09;;;26.25
24586;BMP280;12743;52.262;6.172;2023-06-14T11:36:26;101386.25;;;26.24
24586;BMP280;12743;52.262;6.172;2023-06-14T11:39:00;101382.41;;;25.58
24586;BMP280;12743;52.262;6.172;2023-06-14T11:41:44;101373.00;;;26.01
24586;BMP280;12743;52.262;6.172;2023-06-14T11:44:11;101392.19;;;26.19
24586;BMP280;12743;52.262;6.172;2023-06-14T11:46:38;101387.00;;;26.41
24586;BMP280;12743;52.262;6.172;2023-06-14T11:49:06;101370.56;;;26.07
24586;BMP280;12743;52.262;6.172;2023-06-14T11:51:34;101382.16;;;26.36
24586;BMP280;12743;52.262;6.172;2023-06-14T11:54:02;101383.00;;;26.33
24586;BMP280;12743;52.262;6.172;2023-06-14T11:56:31;101384.53;;;26.91
24586;BMP280;12743;52.262;6.172;2023-06-14T11:58:58;101362.09;;;26.82
24586;BMP280;12743;52.262;6.172;2023-06-14T12:01:26;101368.25;;;26.21
24586;BMP280;12743;52.262;6.172;2023-06-14T12:03:54;101390.78;;;26.27
24586;BMP280;12743;52.262;6.172;2023-06-14T12:06:29;101374.31;;;26.09
24586;BMP280;12743;52.262;6.172;2023-06-14T12:09:03;101390.47;;;25.93
24586;BMP280;12743;52.262;6.172;2023-06-14T12:11:33;101393.69;;;26.36
24586;BMP280;12743;52.262;6.172;2023-06-14T12:14:03;101383.31;;;27.08
24586;BMP280;12743;52.262;6.172;2023-06-14T12:16:33;101389.75;;;26.53
24586;BMP280;12743;52.262;6.172;2023-06-14T12:19:08;101380.88;;;26.98
24586;BMP280;12743;52.262;6.172;2023-06-14T12:21:37;101361.25;;;26.85
24586;BMP280;12743;52.262;6.172;2023-06-14T12:24:05;101374.81;;;26.20
24586;BMP280;12743;52.262;6.172;2023-06-14T12:26:33;101370.75;;;26.44
24586;BMP280;12743;52.262;6.172;2023-06-14T12:29:05;101379.31;;;26.71
24586;BMP280;12743;52.262;6.172;2023-06-14T12:31:31;101374.75;;;26.97
24586;BMP280;12743;52.262;6.172;2023-06-14T12:33:59;101380.78;;;27.80
24586;BMP280;12743;52.262;6.172;2023-06-14T12:36:25;101368.16;;;27.77
24586;BMP280;12743;52.262;6.172;2023-06-14T12:38:52;101385.31;;;26.47
24586;BMP280;12743;52.262;6.172;2023-06-14T12:41:21;101364.53;;;26.76
24586;BMP280;12743;52.262;6.172;2023-06-14T12:43:48;101374.31;;;27.52
24586;BMP280;12743;52.262;6.172;2023-06-14T12:46:15;101380.94;;;27.23
24586;BMP280;12743;52.262;6.172;2023-06-14T12:48:42;101381.91;;;27.16
24586;BMP280;12743;52.262;6.172;2023-06-14T12:51:08;101376.34;;;26.95
24586;BMP280;12743;52.262;6.172;2023-06-14T12:53:35;101376.31;;;26.82
24586;BMP280;12743;52.262;6.172;2023-06-14T12:56:03;101374.94;;;27.94
24586;BMP280;12743;52.262;6.172;2023-06-14T12:58:30;101377.44;;;27.51
24586;BMP280;12743;52.262;6.172;2023-06-14T13:00:57;101382.47;;;27.24
24586;BMP280;12743;52.262;6.172;2023-06-14T13:03:24;101383.03;;;26.90
24586;BMP280;12743;52.262;6.172;2023-06-14T13:05:50;101369.13;;;26.92
24586;BMP280;12743;52.262;6.172;2023-06-14T13:08:17;101366.97;;;27.53
24586;BMP280;12743;52.262;6.172;2023-06-14T13:10:44;101392.09;;;28.00
24586;BMP280;12743;52.262;6.172;2023-06-14T13:13:10;101385.78;;;28.15
24586;BMP280;12743;52.262;6.172;2023-06-14T13:15:38;101366.16;;;28.02
24586;BMP280;12743;52.262;6.172;2023-06-14T13:18:06;101393.72;;;27.72
24586;BMP280;12743;52.262;6.172;2023-06-14T13:20:33;101394.69;;;27.78
24586;BMP280;12743;52.262;6.172;2023-06-14T13:23:00;101386.69;;;27.25
24586;BMP280;12743;52.262;6.172;2023-06-14T13:25:30;101382.69;;;27.29
24586;BMP280;12743;52.262;6.172;2023-06-14T13:27:57;101380.09;;;27.88
24586;BMP280;12743;52.262;6.172;2023-06-14T13:30:23;101367.16;;;27.46
24586;BMP280;12743;52.262;6.172;2023-06-14T13:32:50;101391.06;;;28.53
24586;BMP280;12743;52.262;6.172;2023-06-14T13:35:19;101317.16;;;27.79
24586;BMP280;12743;52.262;6.172;2023-06-14T13:37:46;101349.97;;;28.80
24586;BMP280;12743;52.262;6.172;2023-06-14T13:40:12;101314.88;;;27.90
24586;BMP280;12743;52.262;6.172;2023-06-14T13:42:40;101407.34;;;28.96
24586;BMP280;12743;52.262;6.172;2023-06-14T13:45:08;101390.41;;;28.27
24586;BMP280;12743;52.262;6.172;2023-06-14T13:47:35;101385.78;;;28.15
24586;BMP280;12743;52.262;6.172;2023-06-14T13:50:02;101385.31;;;28.85
24586;BMP280;12743;52.262;6.172;2023-06-14T13:52:29;101361.34;;;30.02
24586;BMP280;12743;52.262;6.172;2023-06-14T13:54:56;101378.22;;;28.23
24586;BMP280;12743;52.262;6.172;2023-06-14T13:57:22;101379.31;;;28.90
24586;BMP280;12743;52.262;6.172;2023-06-14T13:59:49;101325.19;;;28.60
24586;BMP280;12743;52.262;6.172;2023-06-14T14:02:16;101356.22;;;28.98
24586;BMP280;12743;52.262;6.172;2023-06-14T14:04:42;101345.69;;;28.70
24586;BMP280;12743;52.262;6.172;2023-06-14T14:07:09;101354.81;;;29.55
24586;BMP280;12743;52.262;6.172;2023-06-14T14:09:36;101282.84;;;28.35
24586;BMP280;12743;52.262;6.172;2023-06-14T14:12:04;101344.44;;;28.83
24586;BMP280;12743;52.262;6.172;2023-06-14T14:14:32;101352.91;;;28.51
24586;BMP280;12743;52.262;6.172;2023-06-14T14:16:59;101378.22;;;29.09
24586;BMP280;12743;52.262;6.172;2023-06-14T14:19:26;101233.22;;;28.81
24586;BMP280;12743;52.262;6.172;2023-06-14T14:21:53;101376.69;;;29.78